Time;durP1;ratioP1;P1;durP2;ratioP2;P2;SDS_P1;SDS_P2;PMS_P1;PMS_P2;Temp;Humidity;BMP_temperature;BMP_pressure;BME280_temperature;BME280_humidity;BME280_pressure;Samples;Min_cycle;Max_cycle;Signal;HPM_P1;HPM_P2
2022/08/21 00:01:47;;;;;;;6.03;2.10;;;;;;;;;;5075552;28;20382;-68
2022/08/21 00:04:13;;;;;;;5.57;1.80;;;;;;;;;;5075524;28;20025;-67
2022/08/21 00:06:39;;;;;;;8.32;2.17;;;;;;;;;;5075253;28;20017;-67
2022/08/21 00:09:06;;;;;;;6.50;1.88;;;;;;;;;;5075513;28;20103;-67
2022/08/21 00:11:34;;;;;;;9.82;2.10;;;;;;;;;;5075248;28;20494;-67
2022/08/21 00:14:00;;;;;;;6.75;2.10;;;;;;;;;;5075197;28;20029;-67
2022/08/21 00:16:26;;;;;;;6.78;2.28;;;;;;;;;;5075399;28;20029;-68
2022/08/21 00:18:51;;;;;;;9.00;1.98;;;;;;;;;;5075210;28;20025;-67
2022/08/21 00:21:17;;;;;;;3.90;1.77;;;;;;;;;;5075017;28;20051;-68
2022/08/21 00:23:43;;;;;;;7.10;2.03;;;;;;;;;;5075255;28;20025;-67
2022/08/21 00:26:08;;;;;;;9.45;1.95;;;;;;;;;;5075190;28;20025;-68
2022/08/21 00:28:34;;;;;;;6.68;2.22;;;;;;;;;;5075034;28;20024;-67
2022/08/21 00:31:03;;;;;;;4.72;1.80;;;;;;;;;;5075034;28;20035;-67
2022/08/21 00:33:29;;;;;;;5.82;1.90;;;;;;;;;;5073630;28;20032;-66
2022/08/21 00:35:55;;;;;;;5.20;2.13;;;;;;;;;;5074629;28;20472;-67
2022/08/21 00:38:20;;;;;;;6.07;2.13;;;;;;;;;;5074903;28;20035;-68
2022/08/21 00:40:57;;;;;;;9.57;1.98;;;;;;;;;;5074653;28;20031;-68
2022/08/21 00:43:27;;;;;;;5.07;1.85;;;;;;;;;;5074398;28;20528;-66
2022/08/21 00:45:54;;;;;;;9.48;1.83;;;;;;;;;;5074849;28;20044;-67
2022/08/21 00:48:20;;;;;;;9.25;2.08;;;;;;;;;;5074727;28;20378;-67
2022/08/21 00:51:08;;;;;;;4.68;1.60;;;;;;;;;;5074509;28;20025;-67
2022/08/21 00:53:38;;;;;;;6.00;1.85;;;;;;;;;;5074372;28;20068;-67
2022/08/21 00:56:06;;;;;;;7.53;1.80;;;;;;;;;;5074524;28;20390;-67
2022/08/21 00:58:35;;;;;;;7.38;1.70;;;;;;;;;;5074580;28;20055;-68
2022/08/21 01:01:04;;;;;;;6.55;1.80;;;;;;;;;;5074447;28;20032;-67
2022/08/21 01:03:29;;;;;;;6.80;1.73;;;;;;;;;;5074160;28;20372;-67
2022/08/21 01:05:55;;;;;;;7.32;1.40;;;;;;;;;;5074457;28;20028;-67
2022/08/21 01:08:21;;;;;;;4.78;1.63;;;;;;;;;;5074309;28;20357;-68
2022/08/21 01:10:47;;;;;;;9.48;2.40;;;;;;;;;;5074296;28;20030;-67
2022/08/21 01:13:16;;;;;;;5.38;1.70;;;;;;;;;;5074188;28;20052;-67
2022/08/21 01:15:46;;;;;;;5.55;1.67;;;;;;;;;;5073923;28;20032;-66
2022/08/21 01:18:12;;;;;;;6.97;2.10;;;;;;;;;;5072771;28;20446;-67
2022/08/21 01:20:42;;;;;;;5.43;1.75;;;;;;;;;;5073962;28;20033;-67
2022/08/21 01:23:07;;;;;;;7.10;1.90;;;;;;;;;;5074119;28;20104;-67
2022/08/21 01:25:34;;;;;;;8.65;1.92;;;;;;;;;;5073949;28;20118;-66
2022/08/21 01:28:13;;;;;;;4.25;1.58;;;;;;;;;;5073891;28;20056;-66
2022/08/21 01:30:42;;;;;;;5.68;1.85;;;;;;;;;;5074006;28;20538;-67
2022/08/21 01:33:07;;;;;;;5.25;1.77;;;;;;;;;;5073676;28;20524;-68
2022/08/21 01:35:33;;;;;;;8.82;1.83;;;;;;;;;;5073577;28;20025;-67
2022/08/21 01:37:58;;;;;;;4.32;1.60;;;;;;;;;;5071493;28;20033;-67
2022/08/21 01:40:24;;;;;;;5.50;1.80;;;;;;;;;;5069479;28;20054;-67
2022/08/21 01:42:50;;;;;;;12.35;1.95;;;;;;;;;;5073293;28;20058;-67
2022/08/21 01:45:15;;;;;;;7.40;2.10;;;;;;;;;;5073404;28;20112;-67
2022/08/21 01:47:43;;;;;;;5.13;1.60;;;;;;;;;;5073178;28;20024;-67
2022/08/21 01:50:12;;;;;;;4.53;1.73;;;;;;;;;;5073206;28;20020;-67
2022/08/21 01:52:37;;;;;;;8.35;1.98;;;;;;;;;;5073066;28;20048;-67
2022/08/21 01:55:06;;;;;;;14.07;2.00;;;;;;;;;;5072768;28;20037;-67
2022/08/21 01:57:32;;;;;;;7.25;1.75;;;;;;;;;;5072397;28;20040;-67
2022/08/21 01:59:58;;;;;;;6.10;1.90;;;;;;;;;;5062274;28;20103;-67
2022/08/21 02:02:24;;;;;;;5.25;1.80;;;;;;;;;;5062291;28;20024;-67
2022/08/21 02:04:49;;;;;;;7.78;2.40;;;;;;;;;;5063558;28;20051;-67
2022/08/21 02:07:15;;;;;;;6.75;1.95;;;;;;;;;;5061651;28;20040;-66
2022/08/21 02:09:42;;;;;;;5.97;1.77;;;;;;;;;;5062769;28;20021;-67
2022/08/21 02:12:08;;;;;;;5.78;1.70;;;;;;;;;;5063221;28;20032;-66
2022/08/21 02:14:33;;;;;;;5.90;1.60;;;;;;;;;;5058239;28;20021;-67
2022/08/21 02:16:59;;;;;;;5.93;1.70;;;;;;;;;;5052891;28;20478;-67
2022/08/21 02:19:25;;;;;;;7.65;1.70;;;;;;;;;;5052962;28;20086;-67
2022/08/21 02:21:51;;;;;;;10.50;1.90;;;;;;;;;;5052781;28;20033;-66
2022/08/21 02:24:16;;;;;;;5.57;1.63;;;;;;;;;;5052865;28;20029;-67
2022/08/21 02:26:42;;;;;;;7.07;1.70;;;;;;;;;;5052686;28;20025;-67
2022/08/21 02:29:08;;;;;;;5.57;1.60;;;;;;;;;;5052852;28;20059;-67
2022/08/21 02:31:33;;;;;;;5.57;1.88;;;;;;;;;;5052444;28;20414;-67
2022/08/21 02:33:59;;;;;;;4.25;1.77;;;;;;;;;;5052658;28;20028;-67
2022/08/21 02:36:27;;;;;;;9.63;1.88;;;;;;;;;;5051574;28;20021;-67
2022/08/21 02:38:53;;;;;;;8.10;1.70;;;;;;;;;;5052676;28;20017;-67
2022/08/21 02:41:21;;;;;;;10.07;2.15;;;;;;;;;;5052553;28;20036;-67
2022/08/21 02:43:46;;;;;;;6.18;2.00;;;;;;;;;;5052547;28;20031;-66
2022/08/21 02:46:14;;;;;;;5.40;2.00;;;;;;;;;;5052483;28;20112;-67
2022/08/21 02:48:40;;;;;;;7.65;2.10;;;;;;;;;;5052606;28;20033;-66
2022/08/21 02:51:13;;;;;;;6.00;2.00;;;;;;;;;;5052637;28;20236;-67
2022/08/21 02:53:39;;;;;;;3.83;1.45;;;;;;;;;;5052426;28;20095;-67
2022/08/21 02:56:08;;;;;;;4.47;1.80;;;;;;;;;;5051354;28;20053;-67
2022/08/21 02:58:38;;;;;;;9.35;1.90;;;;;;;;;;5052577;28;20028;-67
2022/08/21 03:01:04;;;;;;;;;;;;;;;;;;5052762;28;20029;-67
2022/08/21 03:03:29;;;;;;;6.63;1.80;;;;;;;;;;5052426;28;20295;-67
2022/08/21 03:05:55;;;;;;;6.60;1.90;;;;;;;;;;5052490;28;20029;-67
2022/08/21 03:08:21;;;;;;;4.57;1.83;;;;;;;;;;5055946;28;20028;-67
2022/08/21 03:10:50;;;;;;;9.23;1.63;;;;;;;;;;5056461;28;20527;-66
2022/08/21 03:13:17;;;;;;;8.77;2.13;;;;;;;;;;5055263;28;20174;-66
2022/08/21 03:15:43;;;;;;;5.72;2.00;;;;;;;;;;5054889;28;20147;-67
2022/08/21 03:18:11;;;;;;;5.05;1.88;;;;;;;;;;5056313;28;20021;-67
2022/08/21 03:20:39;;;;;;;9.52;1.98;;;;;;;;;;5056186;28;20027;-67
2022/08/21 03:23:05;;;;;;;6.38;1.65;;;;;;;;;;5056286;28;20025;-66
2022/08/21 03:25:34;;;;;;;6.65;2.00;;;;;;;;;;5056121;28;20025;-67
2022/08/21 03:28:04;;;;;;;5.18;1.55;;;;;;;;;;5055911;28;20426;-67
2022/08/21 03:30:33;;;;;;;9.25;1.95;;;;;;;;;;5056172;28;20107;-68
2022/08/21 03:32:59;;;;;;;4.57;1.77;;;;;;;;;;5056044;28;20031;-67
2022/08/21 03:35:26;;;;;;;6.28;2.05;;;;;;;;;;5055945;28;20035;-67
2022/08/21 03:37:51;;;;;;;5.65;1.73;;;;;;;;;;5055958;28;20060;-68
2022/08/21 03:40:20;;;;;;;6.47;2.28;;;;;;;;;;5054769;28;20028;-67
2022/08/21 03:42:48;;;;;;;9.27;1.92;;;;;;;;;;5072345;28;20036;-68
2022/08/21 03:45:16;;;;;;;10.35;2.10;;;;;;;;;;5075636;28;20029;-67
2022/08/21 03:47:55;;;;;;;6.18;2.08;;;;;;;;;;5075929;28;20162;-67
2022/08/21 03:50:22;;;;;;;6.93;1.80;;;;;;;;;;5075827;28;20356;-68
2022/08/21 03:52:47;;;;;;;5.90;1.92;;;;;;;;;;5075570;28;20522;-68
2022/08/21 03:55:13;;;;;;;6.60;2.00;;;;;;;;;;5075559;28;20032;-67
2022/08/21 03:57:38;;;;;;;8.32;2.10;;;;;;;;;;5075361;28;20467;-67
2022/08/21 04:00:08;;;;;;;7.97;2.10;;;;;;;;;;5075508;28;20024;-67
2022/08/21 04:02:34;;;;;;;7.65;1.73;;;;;;;;;;5075567;28;20030;-67
2022/08/21 04:04:59;;;;;;;9.07;2.25;;;;;;;;;;5075506;28;20115;-66
2022/08/21 04:07:25;;;;;;;8.88;2.10;;;;;;;;;;5075312;28;20012;-65
2022/08/21 04:09:50;;;;;;;8.98;2.10;;;;;;;;;;5075451;28;20096;-66
2022/08/21 04:12:15;;;;;;;6.22;2.10;;;;;;;;;;5075215;28;20023;-66
2022/08/21 04:14:41;;;;;;;7.22;1.88;;;;;;;;;;5075212;28;20529;-67
2022/08/21 04:17:07;;;;;;;7.88;2.05;;;;;;;;;;5075257;28;20043;-67
2022/08/21 04:19:32;;;;;;;6.70;2.10;;;;;;;;;;5074547;28;20035;-67
2022/08/21 04:21:58;;;;;;;6.70;2.00;;;;;;;;;;5075202;28;20438;-67
2022/08/21 04:24:23;;;;;;;5.75;1.60;;;;;;;;;;5075139;28;20077;-67
2022/08/21 04:26:49;;;;;;;4.93;1.90;;;;;;;;;;5074911;28;20031;-67
2022/08/21 04:29:15;;;;;;;7.78;2.10;;;;;;;;;;5075040;28;20475;-67
2022/08/21 04:31:43;;;;;;;5.30;1.90;;;;;;;;;;5075090;28;20035;-67
2022/08/21 04:34:09;;;;;;;6.78;3.00;;;;;;;;;;5074706;28;20035;-67
2022/08/21 04:36:35;;;;;;;11.07;2.00;;;;;;;;;;5074914;28;20021;-67
2022/08/21 04:39:01;;;;;;;3.75;1.90;;;;;;;;;;5074869;28;20561;-67
2022/08/21 04:41:27;;;;;;;7.43;2.03;;;;;;;;;;5074449;28;20131;-67
2022/08/21 04:43:54;;;;;;;5.60;2.05;;;;;;;;;;5074768;28;20122;-68
2022/08/21 04:46:19;;;;;;;6.13;2.03;;;;;;;;;;5074665;28;20028;-67
2022/08/21 04:48:45;;;;;;;9.75;2.13;;;;;;;;;;5074652;28;20517;-67
2022/08/21 04:51:22;;;;;;;10.77;1.92;;;;;;;;;;5074655;28;20111;-67
2022/08/21 04:53:55;;;;;;;7.07;1.90;;;;;;;;;;5074293;28;20154;-67
2022/08/21 04:56:36;;;;;;;9.23;2.05;;;;;;;;;;5074391;28;20108;-67
2022/08/21 04:59:06;;;;;;;4.72;2.03;;;;;;;;;;5074453;28;20115;-67
2022/08/21 05:01:33;;;;;;;;;;;;;;;;;;5074891;28;20118;-67
2022/08/21 05:04:01;;;;;;;5.82;1.88;;;;;;;;;;5074390;28;19912;-67
2022/08/21 05:06:30;;;;;;;5.68;1.77;;;;;;;;;;5074353;28;20029;-67
2022/08/21 05:08:57;;;;;;;5.65;2.28;;;;;;;;;;5074222;28;20043;-67
2022/08/21 05:11:23;;;;;;;5.28;1.83;;;;;;;;;;5074010;28;20028;-67
2022/08/21 05:13:49;;;;;;;7.07;2.03;;;;;;;;;;5074102;28;20032;-67
2022/08/21 05:16:16;;;;;;;5.82;1.70;;;;;;;;;;5074196;28;20032;-67
2022/08/21 05:18:41;;;;;;;8.18;2.30;;;;;;;;;;5073934;28;20099;-67
2022/08/21 05:21:07;;;;;;;6.50;1.88;;;;;;;;;;5074007;28;20154;-67
2022/08/21 05:23:33;;;;;;;6.65;1.92;;;;;;;;;;5073962;28;20444;-66
2022/08/21 05:25:59;;;;;;;8.98;2.03;;;;;;;;;;5073746;28;20031;-67
2022/08/21 05:28:25;;;;;;;8.32;2.03;;;;;;;;;;5073997;28;20093;-67
2022/08/21 05:30:52;;;;;;;10.02;2.65;;;;;;;;;;5072913;28;20380;-66
2022/08/21 05:33:17;;;;;;;6.80;2.25;;;;;;;;;;5073803;28;20491;-67
2022/08/21 05:35:43;;;;;;;6.25;1.90;;;;;;;;;;5073766;28;20124;-66
2022/08/21 05:38:08;;;;;;;8.85;2.10;;;;;;;;;;5073564;28;20028;-66
2022/08/21 05:40:34;;;;;;;6.20;2.10;;;;;;;;;;5073554;28;20060;-67
2022/08/21 05:43:00;;;;;;;5.50;2.13;;;;;;;;;;5073512;28;20037;-67
2022/08/21 05:45:29;;;;;;;5.50;2.20;;;;;;;;;;5073503;28;20028;-66
2022/08/21 05:47:55;;;;;;;7.88;2.10;;;;;;;;;;5073245;28;20423;-66
2022/08/21 05:50:20;;;;;;;6.28;2.20;;;;;;;;;;5073345;28;20120;-67
2022/08/21 05:52:46;;;;;;;6.50;2.13;;;;;;;;;;5073221;28;20052;-67
2022/08/21 05:55:12;;;;;;;7.45;1.95;;;;;;;;;;5073001;28;20056;-67
2022/08/21 05:57:40;;;;;;;7.30;1.92;;;;;;;;;;5073363;28;20115;-67
2022/08/21 06:00:12;;;;;;;8.98;2.25;;;;;;;;;;5072081;28;20024;-67
2022/08/21 06:02:38;;;;;;;7.63;1.85;;;;;;;;;;5073259;28;20078;-67
2022/08/21 06:05:03;;;;;;;4.72;2.33;;;;;;;;;;5073242;28;20020;-67
2022/08/21 06:07:29;;;;;;;5.93;2.08;;;;;;;;;;5072694;28;20364;-67
2022/08/21 06:09:55;;;;;;;6.22;2.00;;;;;;;;;;5073138;28;20025;-66
2022/08/21 06:12:20;;;;;;;6.18;2.10;;;;;;;;;;5073265;28;20055;-66
2022/08/21 06:14:45;;;;;;;4.88;2.13;;;;;;;;;;5072930;28;20406;-66
2022/08/21 06:17:12;;;;;;;4.72;2.60;;;;;;;;;;5073076;28;20056;-66
2022/08/21 06:19:38;;;;;;;7.78;1.73;;;;;;;;;;5073067;28;20060;-67
2022/08/21 06:22:04;;;;;;;6.63;1.80;;;;;;;;;;5072705;28;20407;-66
2022/08/21 06:24:30;;;;;;;6.18;1.83;;;;;;;;;;5072972;28;20032;-67
2022/08/21 06:26:56;;;;;;;8.63;2.05;;;;;;;;;;5072872;28;20044;-67
2022/08/21 06:29:22;;;;;;;5.70;2.28;;;;;;;;;;5072959;28;20024;-67
2022/08/21 06:31:50;;;;;;;8.45;2.22;;;;;;;;;;5072800;28;20391;-67
2022/08/21 06:34:16;;;;;;;7.70;2.20;;;;;;;;;;5072671;28;20115;-67
2022/08/21 06:36:42;;;;;;;6.00;2.13;;;;;;;;;;5072649;28;20379;-67
2022/08/21 06:39:07;;;;;;;7.15;2.17;;;;;;;;;;5072875;28;20040;-66
2022/08/21 06:41:33;;;;;;;8.75;2.28;;;;;;;;;;5072151;28;20021;-67
2022/08/21 06:43:59;;;;;;;8.35;2.60;;;;;;;;;;5072649;28;20031;-67
2022/08/21 06:46:27;;;;;;;6.10;2.20;;;;;;;;;;5072738;28;20387;-67
2022/08/21 06:48:53;;;;;;;5.88;2.00;;;;;;;;;;5072577;28;20040;-67
2022/08/21 06:51:19;;;;;;;6.82;2.00;;;;;;;;;;5072413;28;20025;-67
2022/08/21 06:53:45;;;;;;;5.63;1.80;;;;;;;;;;5072372;28;20186;-67
2022/08/21 06:56:10;;;;;;;4.72;2.10;;;;;;;;;;5072618;28;20100;-67
2022/08/21 06:58:36;;;;;;;8.35;2.33;;;;;;;;;;5072579;28;20028;-67
2022/08/21 07:01:02;;;;;;;7.22;2.53;;;;;;;;;;5072436;28;20028;-67
2022/08/21 07:03:31;;;;;;;6.50;1.98;;;;;;;;;;5072474;28;20089;-66
2022/08/21 07:05:58;;;;;;;6.70;2.20;;;;;;;;;;5072362;28;20456;-66
2022/08/21 07:08:25;;;;;;;7.55;2.10;;;;;;;;;;5072620;28;20052;-66
2022/08/21 07:10:51;;;;;;;8.68;2.65;;;;;;;;;;5072498;28;20020;-66
2022/08/21 07:13:17;;;;;;;8.30;2.25;;;;;;;;;;5072419;28;20028;-66
2022/08/21 07:15:44;;;;;;;5.95;2.03;;;;;;;;;;5072255;28;20028;-66
2022/08/21 07:18:10;;;;;;;7.60;2.58;;;;;;;;;;5072158;28;20039;-66
2022/08/21 07:20:36;;;;;;;6.88;2.38;;;;;;;;;;5072169;28;20020;-66
2022/08/21 07:23:08;;;;;;;7.28;2.30;;;;;;;;;;5072372;28;20029;-66
2022/08/21 07:25:34;;;;;;;7.25;2.30;;;;;;;;;;5072358;28;20017;-67
2022/08/21 07:28:00;;;;;;;12.82;2.22;;;;;;;;;;5072220;28;20037;-67
2022/08/21 07:30:26;;;;;;;4.85;2.13;;;;;;;;;;5072233;28;20155;-67
2022/08/21 07:32:52;;;;;;;5.78;1.85;;;;;;;;;;5072235;28;20490;-67
2022/08/21 07:35:19;;;;;;;5.03;1.90;;;;;;;;;;5071791;28;20107;-67
2022/08/21 07:37:45;;;;;;;4.30;1.60;;;;;;;;;;5072160;28;20104;-67
2022/08/21 07:40:11;;;;;;;8.52;2.10;;;;;;;;;;5072249;28;20327;-67
2022/08/21 07:42:44;;;;;;;6.40;2.30;;;;;;;;;;5072030;28;20024;-67
2022/08/21 07:45:11;;;;;;;7.47;2.25;;;;;;;;;;5072096;28;20060;-68
2022/08/21 07:47:36;;;;;;;6.50;2.10;;;;;;;;;;5072061;28;20059;-68
2022/08/21 07:50:03;;;;;;;7.28;1.90;;;;;;;;;;5071633;28;20052;-67
2022/08/21 07:52:28;;;;;;;7.30;2.30;;;;;;;;;;5070711;28;20444;-67
2022/08/21 07:54:54;;;;;;;7.93;2.13;;;;;;;;;;5074435;28;20063;-67
2022/08/21 07:57:19;;;;;;;6.72;2.17;;;;;;;;;;5075643;28;20024;-67
2022/08/21 07:59:45;;;;;;;5.18;1.85;;;;;;;;;;5075669;28;20051;-67
2022/08/21 08:02:20;;;;;;;7.47;1.90;;;;;;;;;;5075594;28;20085;-67
2022/08/21 08:04:46;;;;;;;4.00;1.75;;;;;;;;;;5075220;28;20035;-67
2022/08/21 08:07:11;;;;;;;7.85;2.30;;;;;;;;;;5075451;28;20017;-66
2022/08/21 08:09:37;;;;;;;6.03;1.90;;;;;;;;;;5075295;28;20037;-66
2022/08/21 08:12:03;;;;;;;6.03;1.88;;;;;;;;;;5075235;28;20020;-67
2022/08/21 08:14:29;;;;;;;9.35;2.35;;;;;;;;;;5075217;28;20047;-67
2022/08/21 08:16:54;;;;;;;4.57;1.88;;;;;;;;;;5075329;28;20471;-67
2022/08/21 08:19:20;;;;;;;6.95;2.05;;;;;;;;;;5075053;28;20028;-70
2022/08/21 08:21:45;;;;;;;7.82;1.75;;;;;;;;;;5075173;28;20482;-64
2022/08/21 08:24:11;;;;;;;11.02;2.38;;;;;;;;;;5075149;28;20033;-65
2022/08/21 08:26:39;;;;;;;6.68;2.22;;;;;;;;;;5074996;28;20028;-67
2022/08/21 08:29:04;;;;;;;8.18;2.45;;;;;;;;;;5073861;28;20048;-67
2022/08/21 08:31:30;;;;;;;7.30;1.92;;;;;;;;;;5075095;28;20498;-67
2022/08/21 08:33:55;;;;;;;8.07;1.80;;;;;;;;;;5074528;28;20032;-67
2022/08/21 08:36:35;;;;;;;4.18;1.63;;;;;;;;;;5075027;28;20025;-67
2022/08/21 08:39:02;;;;;;;5.67;1.87;;;;;;;;;;5074903;28;20025;-66
2022/08/21 08:41:29;;;;;;;6.32;1.85;;;;;;;;;;5074690;28;20035;-67
2022/08/21 08:44:03;;;;;;;6.30;2.20;;;;;;;;;;5074652;28;20032;-67
2022/08/21 08:46:44;;;;;;;4.82;1.83;;;;;;;;;;5074783;28;20028;-67
2022/08/21 08:49:12;;;;;;;6.30;1.85;;;;;;;;;;5074578;28;20029;-69
2022/08/21 08:51:53;;;;;;;6.72;1.80;;;;;;;;;;5074488;28;20104;-67
2022/08/21 08:54:25;;;;;;;5.70;1.70;;;;;;;;;;5074486;28;20028;-66
2022/08/21 08:56:52;;;;;;;5.72;1.70;;;;;;;;;;5074363;28;20047;-66
2022/08/21 08:59:42;;;;;;;5.78;1.70;;;;;;;;;;5074367;28;20111;-67
2022/08/21 09:02:11;;;;;;;5.60;1.80;;;;;;;;;;5074367;28;20451;-68
2022/08/21 09:04:37;;;;;;;3.80;1.63;;;;;;;;;;5074037;28;20025;-67
2022/08/21 09:07:30;;;;;;;6.97;1.92;;;;;;;;;;5074352;28;20090;-67
2022/08/21 09:10:16;;;;;;;5.90;1.80;;;;;;;;;;5074251;28;20029;-68
2022/08/21 09:12:47;;;;;;;6.47;1.95;;;;;;;;;;5071017;28;20047;-65
2022/08/21 09:15:22;;;;;;;4.28;1.80;;;;;;;;;;5058124;28;20037;-65
2022/08/21 09:18:09;;;;;;;7.40;1.90;;;;;;;;;;5054011;28;20039;-65
2022/08/21 09:20:55;;;;;;;4.68;1.50;;;;;;;;;;5052544;28;20029;-65
2022/08/21 09:23:29;;;;;;;8.50;2.00;;;;;;;;;;5053697;28;20025;-65
2022/08/21 09:25:55;;;;;;;7.05;1.92;;;;;;;;;;5053952;28;20025;-67
2022/08/21 09:28:20;;;;;;;4.97;1.45;;;;;;;;;;5054001;28;20107;-67
2022/08/21 09:30:46;;;;;;;6.72;1.63;;;;;;;;;;5052027;28;20028;-67
2022/08/21 09:33:12;;;;;;;3.75;1.45;;;;;;;;;;5053795;28;20033;-67
2022/08/21 09:35:51;;;;;;;4.88;1.50;;;;;;;;;;5053750;28;20031;-67
2022/08/21 09:38:29;;;;;;;4.30;1.40;;;;;;;;;;5053796;28;20558;-67
2022/08/21 09:41:03;;;;;;;5.25;1.50;;;;;;;;;;5053470;28;20105;-68
2022/08/21 09:43:30;;;;;;;8.95;1.90;;;;;;;;;;5053656;28;20103;-67
2022/08/21 09:46:02;;;;;;;5.07;1.75;;;;;;;;;;5053310;28;20029;-68
2022/08/21 09:48:27;;;;;;;6.20;1.98;;;;;;;;;;5054531;28;20028;-67
2022/08/21 09:50:53;;;;;;;5.40;1.92;;;;;;;;;;5055926;28;20120;-67
2022/08/21 09:53:26;;;;;;;5.70;1.90;;;;;;;;;;5066797;28;20041;-67
2022/08/21 09:58:47;;;;;;;6.32;2.30;;;;;;;;;;5056701;28;20078;-68
2022/08/21 10:01:22;;;;;;;7.03;1.77;;;;;;;;;;5067507;28;20025;-67
2022/08/21 10:03:49;;;;;;;5.55;1.75;;;;;;;;;;5063046;28;20438;-66
2022/08/21 10:06:26;;;;;;;5.53;1.50;;;;;;;;;;5060511;28;20051;-67
2022/08/21 10:09:04;;;;;;;6.28;1.75;;;;;;;;;;5064070;28;20029;-67
2022/08/21 10:11:31;;;;;;;5.57;2.72;;;;;;;;;;5064820;28;20107;-67
2022/08/21 10:14:18;;;;;;;3.88;1.67;;;;;;;;;;5060232;28;20024;-67
2022/08/21 10:17:06;;;;;;;7.10;2.28;;;;;;;;;;5059353;28;20454;-67
2022/08/21 10:19:55;;;;;;;4.88;1.30;;;;;;;;;;5060087;28;20064;-67
2022/08/21 10:22:42;;;;;;;4.70;1.60;;;;;;;;;;5057777;28;20021;-67
2022/08/21 10:25:19;;;;;;;3.20;1.30;;;;;;;;;;5056863;28;20029;-67
2022/08/21 10:27:45;;;;;;;14.00;3.50;;;;;;;;;;5062650;28;20484;-67
2022/08/21 10:30:16;;;;;;;27.52;4.75;;;;;;;;;;5065247;28;20105;-67
2022/08/21 10:32:45;;;;;;;37.63;6.93;;;;;;;;;;5055521;28;20017;-67
2022/08/21 10:35:14;;;;;;;24.35;5.65;;;;;;;;;;5067133;28;20472;-67
2022/08/21 10:38:00;;;;;;;11.57;3.22;;;;;;;;;;5061048;28;20108;-67
2022/08/21 10:40:49;;;;;;;11.98;3.15;;;;;;;;;;5056843;28;20086;-68
2022/08/21 10:43:38;;;;;;;10.13;3.00;;;;;;;;;;5057093;28;20429;-67
2022/08/21 10:46:16;;;;;;;11.93;2.45;;;;;;;;;;5056452;28;20284;-67
2022/08/21 10:48:52;;;;;;;6.78;1.90;;;;;;;;;;5058486;28;20044;-67
2022/08/21 10:51:33;;;;;;;5.72;1.70;;;;;;;;;;5069896;28;20024;-67
2022/08/21 10:54:10;;;;;;;8.27;1.80;;;;;;;;;;5064600;28;20044;-68
2022/08/21 10:56:40;;;;;;;5.88;1.85;;;;;;;;;;5064263;28;20027;-67
2022/08/21 10:59:36;;;;;;;4.85;1.75;;;;;;;;;;5055375;28;20063;-67
2022/08/21 11:02:38;;;;;;;5.43;1.38;;;;;;;;;;5059313;28;20177;-67
2022/08/21 11:05:13;;;;;;;7.80;1.90;;;;;;;;;;5046530;28;20037;-67
2022/08/21 11:07:53;;;;;;;5.22;1.73;;;;;;;;;;5059111;28;20075;-68
2022/08/21 11:10:28;;;;;;;5.43;1.83;;;;;;;;;;5064035;28;20503;-67
2022/08/21 11:13:05;;;;;;;5.03;1.30;;;;;;;;;;5063126;28;20060;-67
2022/08/21 11:15:43;;;;;;;8.00;1.63;;;;;;;;;;5063682;28;20039;-68
2022/08/21 11:18:19;;;;;;;6.28;1.77;;;;;;;;;;5059784;28;20063;-68
2022/08/21 11:20:48;;;;;;;6.32;1.60;;;;;;;;;;5062410;28;20029;-68
2022/08/21 11:23:16;;;;;;;4.93;1.48;;;;;;;;;;5060701;28;20013;-65
2022/08/21 11:25:50;;;;;;;8.20;1.60;;;;;;;;;;5053057;28;20068;-68
2022/08/21 11:28:30;;;;;;;5.85;1.55;;;;;;;;;;5060841;28;20068;-66
2022/08/21 11:31:08;;;;;;;4.43;1.55;;;;;;;;;;5075801;28;20053;-66
2022/08/21 11:33:49;;;;;;;5.47;1.80;;;;;;;;;;5073402;28;20475;-66
2022/08/21 11:36:20;;;;;;;5.28;1.60;;;;;;;;;;5073404;28;20425;-66
2022/08/21 11:39:00;;;;;;;4.72;1.40;;;;;;;;;;5073624;28;20062;-66
2022/08/21 11:41:40;;;;;;;4.43;1.40;;;;;;;;;;5073518;28;20107;-66
2022/08/21 11:44:22;;;;;;;3.72;1.30;;;;;;;;;;5074569;28;20025;-66
2022/08/21 11:46:58;;;;;;;4.28;1.52;;;;;;;;;;5074727;28;20032;-66
2022/08/21 11:49:32;;;;;;;3.53;1.50;;;;;;;;;;5074999;28;20056;-66
2022/08/21 11:52:14;;;;;;;3.55;1.40;;;;;;;;;;5074956;28;20048;-66
2022/08/21 11:55:02;;;;;;;6.38;1.40;;;;;;;;;;5074948;28;20029;-66
2022/08/21 11:57:52;;;;;;;5.30;1.30;;;;;;;;;;5075029;28;20024;-66
2022/08/21 12:00:30;;;;;;;4.25;1.48;;;;;;;;;;5075234;28;20103;-65
2022/08/21 12:03:08;;;;;;;4.35;1.40;;;;;;;;;;5075128;28;20028;-66
2022/08/21 12:05:41;;;;;;;4.78;1.75;;;;;;;;;;5075127;28;20032;-66
2022/08/21 12:08:34;;;;;;;6.78;1.58;;;;;;;;;;5075015;28;20031;-66
2022/08/21 12:11:21;;;;;;;4.35;1.60;;;;;;;;;;5074799;28;20487;-66
2022/08/21 12:13:52;;;;;;;5.10;1.83;;;;;;;;;;5074872;28;20036;-66
2022/08/21 12:16:32;;;;;;;6.00;1.45;;;;;;;;;;5074793;28;20032;-66
2022/08/21 12:19:19;;;;;;;3.47;1.30;;;;;;;;;;5075027;28;20025;-67
2022/08/21 12:21:58;;;;;;;4.47;1.50;;;;;;;;;;5074861;28;20077;-67
2022/08/21 12:24:26;;;;;;;4.68;1.88;;;;;;;;;;5074526;28;20021;-66
2022/08/21 12:27:12;;;;;;;2.50;1.33;;;;;;;;;;5074637;28;20060;-67
2022/08/21 12:29:38;;;;;;;5.28;1.80;;;;;;;;;;5074609;28;20118;-66
2022/08/21 12:32:23;;;;;;;5.78;1.63;;;;;;;;;;5074490;28;20088;-66
2022/08/21 12:35:16;;;;;;;5.35;1.70;;;;;;;;;;5074515;28;20384;-66
2022/08/21 12:37:49;;;;;;;5.25;1.70;;;;;;;;;;5074456;28;20122;-66
2022/08/21 12:40:22;;;;;;;4.25;1.38;;;;;;;;;;5073724;28;20039;-67
2022/08/21 12:42:51;;;;;;;5.60;1.45;;;;;;;;;;5074167;28;20383;-66
2022/08/21 12:45:28;;;;;;;6.47;1.50;;;;;;;;;;5074378;28;20056;-66
2022/08/21 12:48:30;;;;;;;5.63;1.60;;;;;;;;;;5072760;28;20054;-66
2022/08/21 12:51:06;;;;;;;5.15;1.30;;;;;;;;;;5070231;28;20094;-66
2022/08/21 12:53:40;;;;;;;4.50;1.30;;;;;;;;;;5067899;28;20128;-66
2022/08/21 12:56:11;;;;;;;6.22;1.30;;;;;;;;;;5063201;28;20033;-66
2022/08/21 12:58:41;;;;;;;5.40;1.40;;;;;;;;;;5066244;28;20025;-67
2022/08/21 13:01:14;;;;;;;5.68;1.63;;;;;;;;;;5063355;28;20120;-66
2022/08/21 13:03:41;;;;;;;3.97;1.55;;;;;;;;;;5062441;28;20040;-66
2022/08/21 13:06:13;;;;;;;4.15;2.00;;;;;;;;;;5069305;28;20579;-67
2022/08/21 13:08:38;;;;;;;6.78;1.50;;;;;;;;;;5072377;28;20071;-66
2022/08/21 13:11:06;;;;;;;5.30;1.50;;;;;;;;;;5071075;28;20052;-66
2022/08/21 13:13:33;;;;;;;4.80;1.70;;;;;;;;;;5073617;28;20115;-65
2022/08/21 13:16:04;;;;;;;2.88;1.35;;;;;;;;;;5073692;28;20032;-66
2022/08/21 13:18:33;;;;;;;4.68;1.70;;;;;;;;;;5073835;28;20052;-66
2022/08/21 13:21:11;;;;;;;4.28;1.60;;;;;;;;;;5072826;28;20499;-67
2022/08/21 13:23:37;;;;;;;6.22;1.90;;;;;;;;;;5072650;28;20036;-67
2022/08/21 13:26:15;;;;;;;8.52;1.90;;;;;;;;;;5073327;28;20039;-66
2022/08/21 13:28:41;;;;;;;4.78;1.40;;;;;;;;;;5073275;28;20035;-66
2022/08/21 13:31:13;;;;;;;7.40;1.63;;;;;;;;;;5073139;28;20040;-67
2022/08/21 13:33:41;;;;;;;6.25;1.60;;;;;;;;;;5067190;28;20063;-66
2022/08/21 13:36:41;;;;;;;4.40;1.48;;;;;;;;;;5056877;28;20472;-67
2022/08/21 13:39:09;;;;;;;7.68;1.60;;;;;;;;;;5051088;28;20041;-67
2022/08/21 13:41:37;;;;;;;4.68;1.67;;;;;;;;;;5050802;28;20036;-67
2022/08/21 13:44:06;;;;;;;4.05;1.63;;;;;;;;;;5041877;28;20042;-67
2022/08/21 13:46:35;;;;;;;4.82;1.65;;;;;;;;;;5031203;28;20029;-66
2022/08/21 13:49:03;;;;;;;4.03;1.55;;;;;;;;;;5030913;28;20076;-67
2022/08/21 13:51:31;;;;;;;4.30;1.80;;;;;;;;;;5029529;28;20030;-67
2022/08/21 13:53:57;;;;;;;3.20;1.60;;;;;;;;;;5032867;28;20106;-67
2022/08/21 13:56:33;;;;;;;7.13;1.80;;;;;;;;;;5039089;28;20041;-66
2022/08/21 13:59:01;;;;;;;3.55;1.70;;;;;;;;;;5042110;28;20403;-66
2022/08/21 14:01:34;;;;;;;4.50;1.58;;;;;;;;;;5045519;28;20037;-66
2022/08/21 14:04:07;;;;;;;5.22;1.50;;;;;;;;;;5030850;28;20033;-66
2022/08/21 14:06:41;;;;;;;4.80;1.65;;;;;;;;;;5030583;28;20060;-66
2022/08/21 14:09:11;;;;;;;6.75;1.70;;;;;;;;;;5030876;28;20124;-67
2022/08/21 14:11:37;;;;;;;;;;;;;;;;;;5039906;28;20061;-67
2022/08/21 14:14:13;;;;;;;16.90;8.85;;;;;;;;;;5043938;28;19943;-66
2022/08/21 14:16:45;;;;;;;7.03;1.70;;;;;;;;;;5061788;28;20104;-66
2022/08/21 14:19:37;;;;;;;8.77;2.05;;;;;;;;;;5061764;28;20047;-67
2022/08/21 14:22:22;;;;;;;4.78;1.60;;;;;;;;;;5061564;28;20021;-66
2022/08/21 14:24:48;;;;;;;4.47;1.75;;;;;;;;;;5064980;28;20032;-66
2022/08/21 14:27:17;;;;;;;3.80;1.40;;;;;;;;;;5072650;28;20020;-66
2022/08/21 14:29:43;;;;;;;6.43;2.03;;;;;;;;;;5072530;28;20531;-66
2022/08/21 14:32:14;;;;;;;5.05;1.70;;;;;;;;;;5070984;28;20037;-66
2022/08/21 14:34:39;;;;;;;4.80;1.52;;;;;;;;;;5071694;28;20028;-67
2022/08/21 14:37:05;;;;;;;5.35;1.88;;;;;;;;;;5071352;28;20028;-67
2022/08/21 14:39:30;;;;;;;6.07;1.77;;;;;;;;;;5072415;28;20024;-66
2022/08/21 14:41:57;;;;;;;7.15;1.95;;;;;;;;;;5071238;28;20379;-66
2022/08/21 14:44:22;;;;;;;4.18;1.48;;;;;;;;;;5072132;28;20032;-67
2022/08/21 14:46:48;;;;;;;4.55;1.50;;;;;;;;;;5059582;28;20199;-66
2022/08/21 14:49:14;;;;;;;4.40;1.40;;;;;;;;;;5059986;28;20028;-66
2022/08/21 14:51:40;;;;;;;3.65;1.48;;;;;;;;;;5054134;28;20104;-67
2022/08/21 14:54:06;;;;;;;6.65;1.48;;;;;;;;;;5051994;28;20128;-66
2022/08/21 14:56:33;;;;;;;4.22;1.80;;;;;;;;;;5052230;28;20068;-66
2022/08/21 14:59:02;;;;;;;6.00;1.63;;;;;;;;;;5052218;28;20025;-66
2022/08/21 15:01:28;;;;;;;4.50;2.03;;;;;;;;;;5052170;28;20032;-66
2022/08/21 15:03:54;;;;;;;5.18;2.03;;;;;;;;;;5054649;28;20104;-67